Time;durP1;ratioP1;P1;durP2;ratioP2;P2;SDS_P1;SDS_P2;PMS_P1;PMS_P2;Temp;Humidity;BMP_temperature;BMP_pressure;BME280_temperature;BME280_humidity;BME280_pressure;Samples;Min_cycle;Max_cycle;Signal;HPM_P1;HPM_P2
2024/01/12 00:00:23;;;;;;;17.13;6.68;;;3.00;99.90;;;;;;5109784;27;20405;-93
2024/01/12 00:02:49;;;;;;;16.80;7.00;;;3.30;99.90;;;;;;5110553;28;20419;-92
2024/01/12 00:05:15;;;;;;;17.53;7.13;;;3.10;99.90;;;;;;5109997;27;20905;-91
2024/01/12 00:07:40;;;;;;;11.75;6.18;;;3.20;99.90;;;;;;5111263;27;20446;-91
2024/01/12 00:10:08;;;;;;;20.95;7.13;;;3.10;99.90;;;;;;5114450;27;20398;-92
2024/01/12 00:12:34;;;;;;;14.85;6.15;;;3.10;99.90;;;;;;5113513;27;20410;-92
2024/01/12 00:15:00;;;;;;;18.02;7.20;;;3.10;99.90;;;;;;5114961;27;20426;-92
2024/01/12 00:17:26;;;;;;;16.13;6.25;;;3.40;99.90;;;;;;5113606;27;20433;-92
2024/01/12 00:19:52;;;;;;;17.98;6.97;;;3.40;99.90;;;;;;5114483;27;20881;-92
2024/01/12 00:22:17;;;;;;;17.60;6.55;;;3.10;99.90;;;;;;5113887;27;20403;-92
2024/01/12 00:24:43;;;;;;;19.53;7.50;;;3.10;99.90;;;;;;5113943;27;20390;-91
2024/01/12 00:27:09;;;;;;;18.53;7.13;;;3.10;99.90;;;;;;5114570;27;20419;-91
2024/01/12 00:29:35;;;;;;;15.10;6.10;;;3.20;99.90;;;;;;5113243;27;20430;-91
2024/01/12 00:32:00;;;;;;;16.40;6.90;;;3.10;99.90;;;;;;5114547;27;20438;-91
2024/01/12 00:34:26;;;;;;;14.65;6.10;;;3.20;99.90;;;;;;5112943;27;20406;-92
2024/01/12 00:36:53;;;;;;;15.45;6.20;;;3.10;99.90;;;;;;5114330;27;20434;-91
2024/01/12 00:39:19;;;;;;;14.80;6.68;;;3.40;99.90;;;;;;5113312;27;20418;-91
2024/01/12 00:41:47;;;;;;;13.85;6.55;;;3.10;99.90;;;;;;5113956;27;20398;-91
2024/01/12 00:44:12;;;;;;;16.97;6.43;;;3.00;99.90;;;;;;5113925;27;20443;-91
2024/01/12 00:46:38;;;;;;;14.40;5.67;;;2.90;99.90;;;;;;5113114;27;20874;-91
2024/01/12 00:49:04;;;;;;;17.95;7.00;;;3.00;99.90;;;;;;5114129;27;20988;-92
2024/01/12 00:51:29;;;;;;;16.02;6.95;;;2.90;99.90;;;;;;5112617;27;20495;-93
2024/01/12 00:53:55;;;;;;;14.47;6.17;;;2.80;99.90;;;;;;5114051;27;20387;-94
2024/01/12 00:56:21;;;;;;;15.83;5.87;;;2.80;99.90;;;;;;5112567;27;20419;-91
2024/01/12 00:58:46;;;;;;;18.58;6.60;;;2.70;99.90;;;;;;5113499;27;20451;-92
2024/01/12 01:01:12;;;;;;;14.25;5.80;;;2.60;99.90;;;;;;5112852;27;21088;-92
2024/01/12 01:03:38;;;;;;;17.55;7.15;;;2.80;99.90;;;;;;5112212;27;20390;-92
2024/01/12 01:06:04;;;;;;;15.77;6.10;;;2.70;99.90;;;;;;5113608;27;20535;-92
2024/01/12 01:08:30;;;;;;;15.90;7.00;;;2.50;99.90;;;;;;5112363;27;20794;-91
2024/01/12 01:10:56;;;;;;;15.13;7.32;;;2.40;99.90;;;;;;5113930;27;20394;-90
2024/01/12 01:13:21;;;;;;;17.45;7.75;;;2.50;99.90;;;;;;5112217;27;20475;-90
2024/01/12 01:15:47;;;;;;;16.57;6.60;;;2.50;99.90;;;;;;5113602;27;20552;-92
2024/01/12 01:18:13;;;;;;;16.50;6.45;;;2.40;99.90;;;;;;5112260;27;20406;-91
2024/01/12 01:20:39;;;;;;;16.33;7.22;;;2.40;99.90;;;;;;5121665;27;20436;-94
2024/01/12 01:23:05;;;;;;;17.70;7.68;;;2.10;99.90;;;;;;5133386;27;20439;-93
2024/01/12 01:25:31;;;;;;;16.05;7.90;;;2.40;99.90;;;;;;5133222;27;20405;-91
2024/01/12 01:27:56;;;;;;;14.18;7.57;;;2.30;99.90;;;;;;5114668;27;20738;-91
2024/01/12 01:30:24;;;;;;;16.95;7.55;;;2.30;99.90;;;;;;5111403;27;22882;-91
2024/01/12 01:32:50;;;;;;;17.60;6.93;;;2.30;99.90;;;;;;5113731;27;20920;-92
2024/01/12 01:35:16;;;;;;;21.55;8.63;;;2.20;99.90;;;;;;5112140;27;20421;-92
2024/01/12 01:37:43;;;;;;;14.70;7.70;;;2.40;99.90;;;;;;5112971;27;20477;-92
2024/01/12 01:40:09;;;;;;;24.27;9.45;;;2.20;99.90;;;;;;5112359;27;20432;-93
2024/01/12 01:42:35;;;;;;;19.60;8.43;;;2.20;99.90;;;;;;5112341;27;20405;-92
2024/01/12 01:45:01;;;;;;;19.70;7.90;;;2.30;99.90;;;;;;5130240;27;20477;-91
2024/01/12 01:47:27;;;;;;;17.67;7.88;;;2.20;99.90;;;;;;5112053;27;20401;-91
2024/01/12 01:49:54;;;;;;;16.10;8.20;;;2.10;99.90;;;;;;5130173;27;20399;-92
2024/01/12 01:52:23;;;;;;;19.27;8.07;;;2.30;99.90;;;;;;5111677;27;20394;-92
2024/01/12 01:54:49;;;;;;;17.23;8.02;;;2.10;99.90;;;;;;5130389;27;20484;-91
2024/01/12 01:57:15;;;;;;;19.20;9.13;;;2.10;99.90;;;;;;5132559;27;20386;-92
2024/01/12 01:59:41;;;;;;;19.23;8.65;;;2.20;99.90;;;;;;5132907;27;20408;-91
2024/01/12 02:02:08;;;;;;;18.90;9.60;;;2.20;99.90;;;;;;5133451;27;20409;-92
2024/01/12 02:04:34;;;;;;;18.87;9.83;;;2.40;99.90;;;;;;5132928;27;20401;-91
2024/01/12 02:07:02;;;;;;;23.98;11.52;;;2.30;99.90;;;;;;5133270;27;20393;-91
2024/01/12 02:09:31;;;;;;;18.83;10.40;;;2.30;99.90;;;;;;5132435;27;20731;-90
2024/01/12 02:11:57;;;;;;;20.85;10.50;;;2.30;99.90;;;;;;5133510;27;20397;-92
2024/01/12 02:14:22;;;;;;;19.52;10.48;;;2.60;99.90;;;;;;5131781;27;20427;-91
2024/01/12 02:16:48;;;;;;;21.23;10.52;;;2.20;99.90;;;;;;5132368;27;20461;-92
2024/01/12 02:19:14;;;;;;;22.48;10.82;;;2.30;99.90;;;;;;5132312;27;20393;-90
2024/01/12 02:21:40;;;;;;;16.63;9.52;;;2.40;99.90;;;;;;5132600;27;20405;-92
2024/01/12 02:24:06;;;;;;;18.83;9.40;;;2.40;99.90;;;;;;5132499;27;20408;-92
2024/01/12 02:26:31;;;;;;;21.43;11.63;;;2.20;99.90;;;;;;5148384;27;20837;-92
2024/01/12 02:28:58;;;;;;;18.67;10.33;;;2.10;99.90;;;;;;5133350;27;20799;-91
2024/01/12 02:31:25;;;;;;;19.52;11.05;;;2.20;99.90;;;;;;5130736;27;20484;-91
2024/01/12 02:33:51;;;;;;;16.27;9.30;;;2.20;99.90;;;;;;5132861;27;20416;-92
2024/01/12 02:36:17;;;;;;;18.60;9.23;;;2.10;99.90;;;;;;5132198;27;20420;-91
2024/01/12 02:38:50;;;;;;;21.27;11.25;;;2.30;99.90;;;;;;5131718;27;20385;-90
2024/01/12 02:41:16;;;;;;;19.98;10.98;;;1.90;99.90;;;;;;5132707;27;20525;-90
2024/01/12 02:43:41;;;;;;;18.45;10.18;;;2.00;99.90;;;;;;5130937;27;20512;-91
2024/01/12 02:46:07;;;;;;;26.95;12.20;;;2.10;99.90;;;;;;5132589;27;20405;-90
2024/01/12 02:48:33;;;;;;;12.98;8.68;;;1.90;99.90;;;;;;5131164;27;20493;-91
2024/01/12 02:50:58;;;;;;;17.73;10.15;;;1.80;99.90;;;;;;5132679;27;20416;-91
2024/01/12 02:53:24;;;;;;;18.87;10.47;;;1.70;99.90;;;;;;5129303;27;20397;-91
2024/01/12 02:55:50;;;;;;;17.57;10.27;;;1.70;99.90;;;;;;5111468;27;20546;-92
2024/01/12 02:58:15;;;;;;;16.00;8.80;;;1.70;99.90;;;;;;5111035;27;20482;-92
2024/01/12 03:00:41;;;;;;;24.77;12.80;;;1.60;99.90;;;;;;5111309;27;20768;-92
2024/01/12 03:03:07;;;;;;;17.83;10.00;;;1.70;99.90;;;;;;5112000;27;20398;-92
2024/01/12 03:05:33;;;;;;;21.77;11.63;;;1.60;99.90;;;;;;5110067;27;20403;-92
2024/01/12 03:07:58;;;;;;;15.67;9.60;;;1.60;99.90;;;;;;5112108;27;20405;-90
2024/01/12 03:10:24;;;;;;;19.80;11.30;;;1.40;99.90;;;;;;5109902;27;20470;-95
2024/01/12 03:12:50;;;;;;;20.63;10.63;;;1.40;99.90;;;;;;5111734;27;20394;-91
2024/01/12 03:15:15;;;;;;;20.05;11.10;;;1.30;99.90;;;;;;5112039;27;20434;-91
2024/01/12 03:17:41;;;;;;;18.15;9.38;;;1.20;99.90;;;;;;5116802;27;20857;-91
2024/01/12 03:20:08;;;;;;;14.93;9.77;;;1.20;99.90;;;;;;5111318;27;20966;-92
2024/01/12 03:22:35;;;;;;;20.75;11.20;;;1.20;99.90;;;;;;5109525;27;20489;-91
2024/01/12 03:25:01;;;;;;;18.13;10.05;;;1.10;99.90;;;;;;5121678;27;20751;-92
2024/01/12 03:27:30;;;;;;;18.27;9.68;;;1.10;99.90;;;;;;5130218;27;20405;-91
2024/01/12 03:29:55;;;;;;;18.98;9.90;;;1.00;99.90;;;;;;5115897;27;20773;-92
2024/01/12 03:32:21;;;;;;;16.73;10.80;;;0.90;99.90;;;;;;5130861;27;20425;-91
2024/01/12 03:34:47;;;;;;;15.65;10.65;;;0.90;99.90;;;;;;5130725;27;20481;-92
2024/01/12 03:37:13;;;;;;;23.93;12.93;;;0.90;99.90;;;;;;5131129;27;20788;-92
2024/01/12 03:39:38;;;;;;;27.40;14.47;;;1.00;99.90;;;;;;5130786;27;20427;-92
2024/01/12 03:42:04;;;;;;;25.17;13.18;;;1.00;99.90;;;;;;5128939;27;20397;-92
2024/01/12 03:44:30;;;;;;;27.63;14.50;;;0.70;99.90;;;;;;5109629;27;20402;-90
2024/01/12 03:46:56;;;;;;;22.30;13.52;;;0.70;99.90;;;;;;5111211;27;20401;-91
2024/01/12 03:49:24;;;;;;;26.73;14.90;;;0.70;99.90;;;;;;5126782;27;20418;-93
2024/01/12 03:51:57;;;;;;;24.38;14.20;;;0.80;99.90;;;;;;5110103;27;20881;-91
2024/01/12 03:54:24;;;;;;;22.85;12.98;;;0.70;99.90;;;;;;5111141;28;20434;-90
2024/01/12 03:56:50;;;;;;;26.97;14.47;;;1.00;99.90;;;;;;5109582;27;20426;-91
2024/01/12 03:59:16;;;;;;;25.75;13.68;;;1.00;99.90;;;;;;5128165;28;20430;-91
2024/01/12 04:01:43;;;;;;;27.75;14.13;;;0.80;99.90;;;;;;5108974;28;20442;-93
2024/01/12 04:04:09;;;;;;;23.83;14.70;;;1.10;99.90;;;;;;5111003;28;20403;-92
2024/01/12 04:06:34;;;;;;;31.00;16.33;;;1.00;99.90;;;;;;5109600;28;20410;-92
2024/01/12 04:09:00;;;;;;;33.73;17.00;;;1.20;99.90;;;;;;5110433;28;20414;-92
2024/01/12 04:11:26;;;;;;;32.35;17.50;;;1.20;99.90;;;;;;5109529;27;20394;-91
2024/01/12 04:13:52;;;;;;;36.17;16.92;;;1.20;99.90;;;;;;5109738;28;20399;-91
2024/01/12 04:16:19;;;;;;;27.45;14.32;;;1.20;99.90;;;;;;5110435;28;20936;-93
2024/01/12 04:18:44;;;;;;;31.58;16.73;;;1.20;99.90;;;;;;5108941;28;20479;-91
2024/01/12 04:21:10;;;;;;;26.48;14.32;;;1.10;99.90;;;;;;5110843;28;20901;-92
2024/01/12 04:23:37;;;;;;;33.63;17.50;;;1.30;99.90;;;;;;5108624;28;20407;-91
2024/01/12 04:26:03;;;;;;;30.25;16.85;;;1.40;99.90;;;;;;5110488;27;20445;-92
2024/01/12 04:28:28;;;;;;;33.28;17.98;;;1.30;99.90;;;;;;5109561;28;20435;-92
2024/01/12 04:30:54;;;;;;;27.27;16.30;;;1.70;99.90;;;;;;5109900;27;20399;-91
2024/01/12 04:33:20;;;;;;;25.33;15.13;;;1.40;99.90;;;;;;5109975;28;20459;-90
2024/01/12 04:35:45;;;;;;;30.83;16.87;;;1.40;99.90;;;;;;5109288;28;20933;-92
2024/01/12 04:38:11;;;;;;;31.55;16.00;;;1.40;99.90;;;;;;5110386;28;20901;-92
2024/01/12 04:40:36;;;;;;;30.98;16.90;;;1.40;99.90;;;;;;5109134;28;20450;-92
2024/01/12 04:43:03;;;;;;;29.73;15.80;;;1.20;99.90;;;;;;5117621;27;20489;-92
2024/01/12 04:45:29;;;;;;;28.03;16.67;;;1.40;99.90;;;;;;5147086;27;20867;-92
2024/01/12 04:47:55;;;;;;;31.60;16.43;;;1.50;99.90;;;;;;5130837;27;20401;-91
2024/01/12 04:50:21;;;;;;;30.48;16.65;;;1.30;99.90;;;;;;5130155;27;20891;-92
2024/01/12 04:52:47;;;;;;;27.30;16.08;;;1.50;99.90;;;;;;5129896;27;20396;-91
2024/01/12 04:55:13;;;;;;;27.03;16.17;;;1.50;99.90;;;;;;5134193;27;20419;-92
2024/01/12 04:57:38;;;;;;;29.57;16.30;;;1.50;99.90;;;;;;5133492;27;20393;-93
2024/01/12 05:00:05;;;;;;;27.73;16.13;;;1.70;99.90;;;;;;5134551;27;20397;-92
2024/01/12 05:02:31;;;;;;;31.05;18.63;;;1.60;99.90;;;;;;5132972;27;20407;-93
2024/01/12 05:04:57;;;;;;;31.38;16.50;;;1.40;99.90;;;;;;5134526;27;20396;-92
2024/01/12 05:07:23;;;;;;;35.23;17.33;;;1.70;99.90;;;;;;5133422;27;20441;-92
2024/01/12 05:09:48;;;;;;;28.67;16.52;;;1.70;99.90;;;;;;5133847;27;20426;-92
2024/01/12 05:12:14;;;;;;;30.75;17.00;;;1.70;99.90;;;;;;5133668;27;20385;-92
2024/01/12 05:14:40;;;;;;;28.73;16.42;;;1.60;99.90;;;;;;5133372;27;20413;-91
2024/01/12 05:17:06;;;;;;;26.40;14.88;;;1.70;99.90;;;;;;5134047;27;20431;-92
2024/01/12 05:19:32;;;;;;;30.90;16.45;;;1.70;99.90;;;;;;5150301;27;20487;-91
2024/01/12 05:21:58;;;;;;;27.92;15.82;;;1.70;99.90;;;;;;5134518;27;20443;-92
2024/01/12 05:24:24;;;;;;;27.40;16.15;;;1.70;99.90;;;;;;5130912;27;20399;-94
2024/01/12 05:26:50;;;;;;;23.27;13.82;;;1.70;99.90;;;;;;5130580;27;20435;-92
2024/01/12 05:29:16;;;;;;;28.52;14.77;;;1.80;99.90;;;;;;5113163;27;20398;-92
2024/01/12 05:31:45;;;;;;;31.13;14.35;;;1.80;99.90;;;;;;5112939;27;20413;-92
2024/01/12 05:34:11;;;;;;;33.38;14.77;;;1.70;99.90;;;;;;5113158;27;20413;-92
2024/01/12 05:36:36;;;;;;;26.10;13.73;;;1.90;99.90;;;;;;5111850;27;20426;-92
2024/01/12 05:39:03;;;;;;;25.67;13.63;;;2.00;99.90;;;;;;5113569;27;20427;-91
2024/01/12 05:41:30;;;;;;;28.52;12.07;;;1.70;99.90;;;;;;5092415;27;20926;-91
2024/01/12 05:43:55;;;;;;;32.03;12.40;;;2.10;99.90;;;;;;5104356;27;20959;-91
2024/01/12 05:46:21;;;;;;;28.77;12.20;;;2.10;99.90;;;;;;5112471;27;20444;-90
2024/01/12 05:48:47;;;;;;;29.70;12.73;;;2.00;99.90;;;;;;5112162;27;21043;-91
2024/01/12 05:51:13;;;;;;;35.17;12.87;;;2.10;99.90;;;;;;5113077;27;20525;-91
2024/01/12 05:53:39;;;;;;;31.37;13.13;;;2.20;99.90;;;;;;5111883;27;20403;-91
2024/01/12 05:56:05;;;;;;;32.10;12.20;;;2.40;99.90;;;;;;5112407;27;20493;-92
2024/01/12 05:58:31;;;;;;;26.37;11.90;;;2.20;99.90;;;;;;5145858;27;20781;-93
2024/01/12 06:00:56;;;;;;;31.77;12.20;;;2.30;99.90;;;;;;5113013;27;20415;-91
2024/01/12 06:03:22;;;;;;;26.27;11.40;;;2.30;99.90;;;;;;5111922;27;20406;-90
2024/01/12 06:05:50;;;;;;;31.90;11.10;;;2.30;99.90;;;;;;5145850;27;21221;-92
2024/01/12 06:08:16;;;;;;;24.42;11.52;;;2.30;99.90;;;;;;5112514;27;20399;-90
2024/01/12 06:10:43;;;;;;;30.98;9.77;;;2.40;99.90;;;;;;5111882;27;20403;-92
2024/01/12 06:13:09;;;;;;;26.38;9.85;;;2.40;99.90;;;;;;5112556;27;20402;-92
2024/01/12 06:15:34;;;;;;;24.75;8.82;;;2.40;99.90;;;;;;5111417;27;20428;-92
2024/01/12 06:18:00;;;;;;;31.98;10.05;;;2.50;99.90;;;;;;5113074;27;20901;-92
2024/01/12 06:20:26;;;;;;;28.48;8.88;;;2.50;99.90;;;;;;5110856;27;20464;-91
2024/01/12 06:22:53;;;;;;;27.40;8.57;;;2.70;99.90;;;;;;5112199;27;20398;-91
2024/01/12 06:25:18;;;;;;;28.10;8.70;;;2.50;99.90;;;;;;5112048;27;20410;-91
2024/01/12 06:27:44;;;;;;;25.70;7.77;;;2.70;99.90;;;;;;5111353;27;20454;-91
2024/01/12 06:30:10;;;;;;;23.97;7.10;;;2.70;99.90;;;;;;5131853;27;20510;-91
2024/01/12 06:32:39;;;;;;;27.75;7.38;;;2.70;99.90;;;;;;5111352;27;20398;-91
2024/01/12 06:35:08;;;;;;;27.93;6.90;;;2.90;99.90;;;;;;5112572;27;20406;-90
2024/01/12 06:37:34;;;;;;;26.30;6.85;;;2.80;99.90;;;;;;5111766;27;20921;-91
2024/01/12 06:40:00;;;;;;;27.23;6.43;;;2.90;99.90;;;;;;5129209;27;20401;-93
2024/01/12 06:42:27;;;;;;;28.23;6.68;;;2.90;99.90;;;;;;5111395;27;20387;-89
2024/01/12 06:44:53;;;;;;;25.92;5.75;;;3.00;99.90;;;;;;5111594;27;20406;-91
2024/01/12 06:47:19;;;;;;;25.25;5.88;;;2.90;99.90;;;;;;5111713;27;20394;-90
2024/01/12 06:49:45;;;;;;;21.77;6.00;;;3.00;99.90;;;;;;5111711;27;20477;-92
2024/01/12 06:52:11;;;;;;;30.08;5.65;;;3.00;99.90;;;;;;5112382;27;20399;-91
2024/01/12 06:54:37;;;;;;;24.10;5.38;;;3.00;99.90;;;;;;5110621;27;20405;-91
2024/01/12 06:57:03;;;;;;;25.85;5.13;;;3.00;99.90;;;;;;5111929;27;20427;-90
2024/01/12 06:59:28;;;;;;;22.67;5.50;;;3.00;99.90;;;;;;5123718;27;20400;-91
2024/01/12 07:01:54;;;;;;;23.38;5.38;;;3.20;99.90;;;;;;5132178;27;20426;-91
2024/01/12 07:04:20;;;;;;;18.27;4.80;;;3.20;99.90;;;;;;5123603;27;20561;-91
2024/01/12 07:06:46;;;;;;;22.77;5.40;;;3.20;99.90;;;;;;5111065;27;20468;-90
2024/01/12 07:09:13;;;;;;;22.90;4.73;;;3.20;99.90;;;;;;5112004;27;20418;-91
2024/01/12 07:11:42;;;;;;;20.37;4.50;;;3.20;99.90;;;;;;5110409;27;20543;-90
2024/01/12 07:14:11;;;;;;;25.00;4.28;;;3.40;99.90;;;;;;5128384;27;20407;-90
2024/01/12 07:16:40;;;;;;;21.63;4.28;;;3.30;99.90;;;;;;5109797;27;20534;-90
2024/01/12 07:19:09;;;;;;;22.77;3.87;;;3.10;99.90;;;;;;5111078;27;20409;-91
2024/01/12 07:21:35;;;;;;;23.48;4.22;;;3.50;99.90;;;;;;5111070;27;20474;-91
2024/01/12 07:24:02;;;;;;;20.93;3.67;;;3.60;99.90;;;;;;5110159;27;20438;-91
2024/01/12 07:26:28;;;;;;;21.45;3.42;;;3.40;99.90;;;;;;5128284;27;20393;-91
2024/01/12 07:28:54;;;;;;;18.47;3.30;;;3.40;99.90;;;;;;5110087;27;20387;-91
2024/01/12 07:31:20;;;;;;;16.40;3.53;;;3.70;99.90;;;;;;5111251;27;20395;-89
2024/01/12 07:33:45;;;;;;;15.60;2.87;;;3.50;99.90;;;;;;5110055;27;20405;-91
2024/01/12 07:36:11;;;;;;;17.52;2.95;;;3.70;99.90;;;;;;5128215;27;20426;-92
2024/01/12 07:38:37;;;;;;;15.23;2.33;;;3.60;99.90;;;;;;5110500;27;20399;-90
2024/01/12 07:41:02;;;;;;;18.90;2.58;;;3.70;99.90;;;;;;5110735;27;20428;-90
2024/01/12 07:43:30;;;;;;;19.55;2.05;;;3.80;99.90;;;;;;5111041;28;20514;-90
2024/01/12 07:45:56;;;;;;;14.82;2.38;;;3.80;99.90;;;;;;5109862;27;20413;-90
2024/01/12 07:48:22;;;;;;;19.10;3.00;;;3.90;99.90;;;;;;5111055;27;20567;-91
2024/01/12 07:50:48;;;;;;;16.67;2.10;;;4.00;99.90;;;;;;5113281;27;20489;-92
2024/01/12 07:53:13;;;;;;;16.83;2.10;;;4.00;99.90;;;;;;5111084;28;20399;-91
2024/01/12 07:55:39;;;;;;;15.87;1.90;;;3.90;99.90;;;;;;5110118;28;20514;-91
2024/01/12 07:58:05;;;;;;;15.98;2.13;;;4.00;99.90;;;;;;5110821;28;20739;-90
2024/01/12 08:00:30;;;;;;;15.90;2.20;;;4.10;99.90;;;;;;5110166;28;20774;-92
2024/01/12 08:02:56;;;;;;;18.47;2.83;;;4.10;99.90;;;;;;5110428;28;20411;-90
2024/01/12 08:05:22;;;;;;;18.80;1.87;;;4.10;99.90;;;;;;5111349;28;20928;-90
2024/01/12 08:07:48;;;;;;;16.90;2.05;;;4.10;99.90;;;;;;5109527;28;20978;-90
2024/01/12 08:10:15;;;;;;;13.93;2.28;;;4.10;99.90;;;;;;5111085;27;20402;-91
2024/01/12 08:12:40;;;;;;;20.83;2.08;;;3.90;99.90;;;;;;5109564;28;20397;-90
2024/01/12 08:15:09;;;;;;;15.93;2.20;;;4.10;99.90;;;;;;5110447;28;20494;-91
2024/01/12 08:17:35;;;;;;;17.17;2.20;;;4.20;99.90;;;;;;5110440;28;20398;-90
2024/01/12 08:20:00;;;;;;;17.25;2.35;;;4.20;99.90;;;;;;5109852;28;20405;-92
2024/01/12 08:22:26;;;;;;;15.17;1.83;;;4.20;99.90;;;;;;5110352;27;20403;-93
2024/01/12 08:24:52;;;;;;;12.50;1.60;;;4.30;99.90;;;;;;5130027;27;20436;-91
2024/01/12 08:27:18;;;;;;;16.52;2.65;;;4.50;99.90;;;;;;5115946;27;20514;-90
2024/01/12 08:29:43;;;;;;;17.13;2.45;;;4.50;99.90;;;;;;5113241;27;20403;-91
2024/01/12 08:32:09;;;;;;;17.55;1.90;;;4.50;99.90;;;;;;5114752;27;20398;-91
2024/01/12 08:34:35;;;;;;;14.27;2.40;;;4.60;99.90;;;;;;5114168;27;20393;-91
2024/01/12 08:37:00;;;;;;;17.52;2.38;;;4.60;99.90;;;;;;5135046;27;20421;-92
2024/01/12 08:39:26;;;;;;;18.20;2.25;;;4.60;99.90;;;;;;5118650;27;20810;-92
2024/01/12 08:41:52;;;;;;;16.90;2.17;;;4.60;99.90;;;;;;5114242;27;20395;-91
2024/01/12 08:44:18;;;;;;;16.30;2.10;;;4.60;99.90;;;;;;5114885;27;20935;-91
2024/01/12 08:46:43;;;;;;;15.77;2.10;;;4.70;99.90;;;;;;5113324;27;20431;-92
2024/01/12 08:49:09;;;;;;;15.32;2.13;;;4.70;99.90;;;;;;5114760;27;20406;-92
2024/01/12 08:51:35;;;;;;;12.38;2.13;;;4.80;99.90;;;;;;5113098;27;20409;-91
2024/01/12 08:54:01;;;;;;;11.93;1.83;;;4.80;99.90;;;;;;5113945;27;20478;-92
2024/01/12 08:56:26;;;;;;;18.33;2.38;;;5.10;99.90;;;;;;5113777;27;20441;-91
2024/01/12 08:58:52;;;;;;;14.30;2.30;;;4.80;99.90;;;;;;5115196;27;20430;-91
2024/01/12 09:01:18;;;;;;;14.53;1.80;;;4.90;99.90;;;;;;5134349;27;20440;-92
2024/01/12 09:03:44;;;;;;;17.35;2.30;;;5.00;99.90;;;;;;5133928;27;20396;-91
2024/01/12 09:06:10;;;;;;;14.48;1.77;;;5.10;99.90;;;;;;5151866;27;20405;-91
2024/01/12 09:08:36;;;;;;;19.00;2.67;;;5.00;99.90;;;;;;5133423;27;20911;-92
2024/01/12 09:11:02;;;;;;;17.47;2.20;;;5.20;99.90;;;;;;5134676;27;20389;-91
2024/01/12 09:13:28;;;;;;;15.48;2.15;;;5.10;99.90;;;;;;5151177;27;20397;-91
2024/01/12 09:15:53;;;;;;;14.03;2.10;;;5.00;99.90;;;;;;5134478;27;20771;-91
2024/01/12 09:18:19;;;;;;;13.50;1.67;;;5.40;99.90;;;;;;5134087;27;21042;-91
2024/01/12 09:20:45;;;;;;;15.60;1.77;;;5.00;99.90;;;;;;5134649;27;20577;-92
2024/01/12 09:23:10;;;;;;;13.13;1.58;;;5.10;99.90;;;;;;5151735;27;20436;-90
2024/01/12 09:25:36;;;;;;;16.23;2.27;;;5.00;99.90;;;;;;5133915;27;20397;-90
2024/01/12 09:28:02;;;;;;;19.30;2.23;;;5.00;99.90;;;;;;5134594;27;20397;-91
2024/01/12 09:30:27;;;;;;;14.88;2.17;;;5.10;99.90;;;;;;5133471;27;20389;-91
2024/01/12 09:32:53;;;;;;;26.90;10.98;;;5.10;99.90;;;;;;5133729;27;20396;-91
2024/01/12 09:35:19;;;;;;;26.40;9.90;;;5.10;99.90;;;;;;5133583;27;20461;-91
2024/01/12 09:37:44;;;;;;;23.93;5.83;;;5.10;99.90;;;;;;5133658;27;20392;-90
2024/01/12 09:40:11;;;;;;;17.73;4.13;;;5.30;99.90;;;;;;5132528;27;20483;-91
2024/01/12 09:42:43;;;;;;;16.43;2.57;;;5.10;99.90;;;;;;5133172;27;20474;-92
2024/01/12 09:45:12;;;;;;;15.10;2.35;;;5.20;99.90;;;;;;5134138;27;20401;-90
2024/01/12 09:47:38;;;;;;;15.30;2.10;;;5.20;99.90;;;;;;5132598;27;20400;-91
2024/01/12 09:50:05;;;;;;;16.33;2.13;;;5.20;99.90;;;;;;5151004;27;20759;-92
2024/01/12 09:52:31;;;;;;;13.55;1.73;;;5.20;99.90;;;;;;5149883;27;20398;-91
2024/01/12 09:54:56;;;;;;;14.60;1.92;;;5.60;99.90;;;;;;5133375;27;20831;-91
2024/01/12 09:57:23;;;;;;;16.33;1.88;;;5.00;99.90;;;;;;5133586;27;20397;-91
2024/01/12 09:59:50;;;;;;;16.42;1.77;;;5.30;99.90;;;;;;5132731;27;20399;-91
2024/01/12 10:02:18;;;;;;;20.80;2.90;;;5.70;99.90;;;;;;5134299;27;20456;-91
2024/01/12 10:04:44;;;;;;;15.57;2.10;;;5.20;99.90;;;;;;5132510;27;20393;-91
2024/01/12 10:07:09;;;;;;;14.40;2.00;;;5.20;99.90;;;;;;5133259;27;20588;-90
2024/01/12 10:09:35;;;;;;;13.95;2.40;;;5.30;99.90;;;;;;5132811;27;20485;-91
2024/01/12 10:12:01;;;;;;;13.67;2.57;;;5.30;99.90;;;;;;5125151;27;20889;-92
2024/01/12 10:14:27;;;;;;;17.57;2.60;;;5.30;99.90;;;;;;5112888;27;20394;-91
2024/01/12 10:16:56;;;;;;;20.33;5.50;;;5.40;99.90;;;;;;5129094;27;20515;-91
2024/01/12 10:19:22;;;;;;;21.55;5.35;;;5.40;99.90;;;;;;5112878;27;20862;-90
2024/01/12 10:21:48;;;;;;;24.00;5.38;;;5.40;99.90;;;;;;5111243;27;20398;-91
2024/01/12 10:24:19;;;;;;;20.05;3.08;;;5.40;99.90;;;;;;5112560;27;20414;-91
2024/01/12 10:26:49;;;;;;;17.73;3.42;;;5.40;99.90;;;;;;5111761;27;20489;-90
2024/01/12 10:29:16;;;;;;;20.85;2.83;;;5.40;99.90;;;;;;5112032;27;20499;-91
2024/01/12 10:31:43;;;;;;;20.20;2.92;;;5.50;99.90;;;;;;5129216;27;21181;-92
2024/01/12 10:34:11;;;;;;;18.83;2.95;;;5.50;99.90;;;;;;5145653;27;20428;-89
2024/01/12 10:36:38;;;;;;;22.02;2.85;;;5.50;99.90;;;;;;5120825;27;20557;-90
2024/01/12 10:39:11;;;;;;;18.70;2.72;;;5.40;99.90;;;;;;5110944;27;20405;-91
2024/01/12 10:41:40;;;;;;;16.15;2.42;;;5.40;99.90;;;;;;5112565;27;20427;-91
2024/01/12 10:44:06;;;;;;;17.33;2.58;;;5.40;99.90;;;;;;5128703;27;20399;-91
2024/01/12 10:46:39;;;;;;;19.55;2.10;;;5.40;99.90;;;;;;5111601;27;20838;-91
2024/01/12 10:49:25;;;;;;;19.10;2.25;;;5.40;99.90;;;;;;5126987;27;20526;-91
2024/01/12 10:51:57;;;;;;;18.75;2.15;;;5.30;99.90;;;;;;5131291;27;20393;-91
2024/01/12 10:54:29;;;;;;;22.67;2.83;;;5.40;99.90;;;;;;5131433;27;20405;-90
2024/01/12 10:56:55;;;;;;;23.00;2.85;;;5.40;99.90;;;;;;5111066;27;20433;-90
2024/01/12 10:59:25;;;;;;;22.75;2.97;;;5.40;99.90;;;;;;5111438;27;20399;-90
2024/01/12 11:01:51;;;;;;;20.35;2.90;;;5.40;99.90;;;;;;5111418;27;20407;-91
2024/01/12 11:04:17;;;;;;;18.05;2.03;;;5.40;99.90;;;;;;5128055;27;20436;-90
2024/01/12 11:06:48;;;;;;;20.77;2.50;;;5.70;99.90;;;;;;5111607;27;20485;-89
2024/01/12 11:09:17;;;;;;;21.65;2.92;;;5.60;99.90;;;;;;5117944;27;20385;-91
2024/01/12 11:11:53;;;;;;;23.77;3.10;;;5.50;99.90;;;;;;5132598;27;20490;-91
2024/01/12 11:14:20;;;;;;;21.55;3.33;;;5.50;99.90;;;;;;5122026;27;20773;-89
2024/01/12 11:16:46;;;;;;;19.80;2.53;;;5.60;99.90;;;;;;5111597;27;20509;-91
2024/01/12 11:19:13;;;;;;;19.53;2.90;;;5.60;99.90;;;;;;5128440;27;20721;-92
2024/01/12 11:21:41;;;;;;;20.05;3.35;;;5.80;99.90;;;;;;5127969;27;20434;-91
2024/01/12 11:24:10;;;;;;;21.85;3.17;;;5.70;99.90;;;;;;5111306;27;20410;-90
2024/01/12 11:26:36;;;;;;;20.10;2.50;;;5.60;99.90;;;;;;5110590;27;20749;-92
2024/01/12 11:29:02;;;;;;;22.08;2.97;;;5.60;99.90;;;;;;5111258;27;20410;-91
2024/01/12 11:31:29;;;;;;;21.67;3.28;;;5.90;99.90;;;;;;5126732;27;20911;-91
2024/01/12 11:34:00;;;;;;;20.45;2.85;;;5.70;99.90;;;;;;5116202;27;20395;-92
2024/01/12 11:36:32;;;;;;;21.85;3.45;;;5.70;99.90;;;;;;5107270;27;20506;-92
2024/01/12 11:39:01;;;;;;;19.52;3.20;;;5.70;99.90;;;;;;5124184;27;20487;-91
2024/01/12 11:41:30;;;;;;;23.10;2.97;;;5.60;99.90;;;;;;5133127;27;20406;-90
2024/01/12 11:43:57;;;;;;;23.33;3.63;;;5.60;99.90;;;;;;5132180;27;20408;-90
2024/01/12 11:46:29;;;;;;;24.67;3.45;;;5.60;99.90;;;;;;5090698;28;20400;-91
2024/01/12 11:48:55;;;;;;;23.02;3.13;;;5.50;99.90;;;;;;5093723;27;20441;-90
2024/01/12 11:51:26;;;;;;;23.70;3.20;;;5.50;99.90;;;;;;5110896;27;20418;-91
2024/01/12 11:53:53;;;;;;;23.85;3.35;;;5.70;99.90;;;;;;5110236;28;20398;-89
2024/01/12 11:56:21;;;;;;;22.38;3.28;;;5.80;99.90;;;;;;5110130;27;21141;-91
2024/01/12 11:58:47;;;;;;;22.88;3.47;;;6.00;99.90;;;;;;5104429;28;20422;-89
2024/01/12 12:01:13;;;;;;;23.60;3.78;;;5.80;99.90;;;;;;5108923;28;20409;-90
2024/01/12 12:03:39;;;;;;;16.38;2.72;;;5.80;99.90;;;;;;5109296;28;20778;-90
2024/01/12 12:06:10;;;;;;;18.98;2.72;;;5.90;99.90;;;;;;5111173;27;20732;-91
2024/01/12 12:08:36;;;;;;;24.17;3.58;;;5.90;99.90;;;;;;5130210;27;20408;-91
2024/01/12 12:11:03;;;;;;;21.20;3.10;;;5.90;99.90;;;;;;5109199;28;20438;-92
2024/01/12 12:13:29;;;;;;;17.38;2.47;;;5.90;99.90;;;;;;5108209;28;20932;-92
2024/01/12 12:15:55;;;;;;;20.67;2.97;;;6.00;99.90;;;;;;5108796;28;20497;-91
2024/01/12 12:18:20;;;;;;;19.50;2.95;;;6.10;99.90;;;;;;5108579;28;20470;-92
2024/01/12 12:20:47;;;;;;;17.85;2.53;;;6.20;99.90;;;;;;5109296;28;20414;-89
2024/01/12 12:23:14;;;;;;;19.33;2.22;;;5.70;99.90;;;;;;5087537;28;20419;-92
2024/01/12 12:25:39;;;;;;;18.58;2.22;;;6.00;99.90;;;;;;5138795;27;20478;-92
2024/01/12 12:28:05;;;;;;;18.00;2.30;;;6.00;99.90;;;;;;5108345;28;20955;-92
2024/01/12 12:30:31;;;;;;;18.80;2.97;;;6.00;99.90;;;;;;5114353;27;20388;-92
2024/01/12 12:33:00;;;;;;;14.63;2.28;;;6.00;99.90;;;;;;5129317;27;20930;-91
2024/01/12 12:35:26;;;;;;;18.43;3.13;;;6.00;99.90;;;;;;5124711;28;20530;-93
2024/01/12 12:37:52;;;;;;;16.35;2.92;;;5.80;99.90;;;;;;5109710;28;20407;-91